Time;durP1;ratioP1;P1;durP2;ratioP2;P2;SDS_P1;SDS_P2;PMS_P1;PMS_P2;Temp;Humidity;BMP_temperature;BMP_pressure;BME280_temperature;BME280_humidity;BME280_pressure;Samples;Min_cycle;Max_cycle;Signal;HPM_P1;HPM_P2
2022/11/05 00:10:17;;;;;;;77.03;41.40;;;7.80;99.90;;;;;;4162890;28;20452;-64
2022/11/05 00:16:57;;;;;;;84.47;41.67;;;7.80;99.90;;;;;;4163211;28;20052;-63
2022/11/05 00:19:07;;;;;;;79.97;41.63;;;7.80;99.90;;;;;;4163526;28;20029;-64
2022/11/05 00:25:12;;;;;;;85.40;43.75;;;7.80;99.90;;;;;;4156454;28;20022;-63
2022/11/05 00:26:01;;;;;;;81.77;40.43;;;7.80;99.90;;;;;;4146903;28;20087;-63
2022/11/05 00:28:02;;;;;;;79.47;42.37;;;7.70;99.90;;;;;;4147094;28;20064;-63
2022/11/05 00:30:04;;;;;;;72.33;42.40;;;7.70;99.90;;;;;;4147222;28;20364;-64
2022/11/05 00:32:05;;;;;;;84.80;41.83;;;7.70;99.90;;;;;;4162514;28;20045;-63
2022/11/05 00:34:06;;;;;;;75.97;40.57;;;7.70;99.90;;;;;;4160755;28;20084;-63
2022/11/05 00:36:11;;;;;;;77.50;39.03;;;7.60;99.90;;;;;;4147733;28;20039;-62
2022/11/05 00:38:12;;;;;;;73.10;41.63;;;7.60;99.90;;;;;;4160503;28;20045;-63
2022/11/05 00:40:14;;;;;;;69.73;38.30;;;7.70;99.90;;;;;;4163575;28;20079;-65
2022/11/05 00:49:28;;;;;;;76.47;40.53;;;7.80;99.90;;;;;;4148994;28;20432;-64
2022/11/05 00:49:30;;;;;;;74.10;39.17;;;7.80;99.90;;;;;;4162638;28;20099;-63
2022/11/05 00:51:31;;;;;;;80.90;42.03;;;7.80;99.90;;;;;;4161126;28;20563;-65
2022/11/05 00:53:32;;;;;;;72.83;39.50;;;7.90;99.90;;;;;;4163157;28;20084;-63
2022/11/05 00:55:36;;;;;;;70.03;38.47;;;7.90;99.90;;;;;;4162229;28;20087;-63
2022/11/05 00:57:38;;;;;;;77.37;40.03;;;7.90;99.90;;;;;;4162913;28;20046;-63
2022/11/05 00:59:39;;;;;;;71.03;38.97;;;7.90;99.90;;;;;;4148343;28;20041;-62
2022/11/05 01:01:40;;;;;;;73.67;40.27;;;7.90;99.90;;;;;;4147896;28;20034;-64
2022/11/05 01:03:41;;;;;;;72.47;41.30;;;8.00;99.90;;;;;;4150323;28;20041;-63
2022/11/05 01:05:45;;;;;;;83.87;43.33;;;8.00;99.90;;;;;;4162836;28;20091;-63
2022/11/05 01:07:46;;;;;;;72.53;39.87;;;8.00;99.90;;;;;;4149843;28;20056;-63
2022/11/05 01:09:47;;;;;;;81.23;40.67;;;8.00;99.90;;;;;;4146426;28;20026;-64
2022/11/05 01:11:50;;;;;;;76.17;39.50;;;8.00;99.90;;;;;;4145964;28;20115;-64
2022/11/05 01:13:51;;;;;;;75.70;40.03;;;8.00;99.90;;;;;;4144476;28;20045;-62
2022/11/05 01:15:53;;;;;;;76.90;40.07;;;8.10;99.90;;;;;;4150140;28;20030;-63
2022/11/05 01:17:54;;;;;;;72.03;39.80;;;8.10;99.90;;;;;;4153820;28;20062;-63
2022/11/05 01:19:55;;;;;;;70.30;38.33;;;8.10;99.90;;;;;;4155453;28;20029;-63
2022/11/05 01:21:56;;;;;;;74.57;39.63;;;8.10;99.90;;;;;;4154743;28;20080;-64
2022/11/05 01:23:57;;;;;;;71.83;36.47;;;8.10;99.90;;;;;;4148985;28;20080;-64
2022/11/05 01:25:58;;;;;;;65.50;37.30;;;8.20;99.90;;;;;;4155344;28;20029;-64
2022/11/05 01:28:01;;;;;;;64.20;36.83;;;8.20;99.90;;;;;;4153533;28;20486;-65
2022/11/05 01:30:03;;;;;;;83.50;40.00;;;8.20;99.90;;;;;;4153630;28;20033;-63
2022/11/05 01:32:04;;;;;;;64.27;37.33;;;8.20;99.90;;;;;;4145515;28;20041;-64
2022/11/05 01:34:06;;;;;;;68.40;35.03;;;8.10;99.90;;;;;;4144157;28;20442;-64
2022/11/05 01:36:07;;;;;;;68.33;37.87;;;8.00;99.90;;;;;;4149104;28;20029;-63
2022/11/05 01:38:08;;;;;;;69.17;36.90;;;8.00;99.90;;;;;;4153304;28;20057;-64
2022/11/05 01:40:12;;;;;;;77.90;38.13;;;8.00;99.90;;;;;;4148833;28;20095;-64
2022/11/05 01:42:19;;;;;;;70.43;36.67;;;8.00;99.90;;;;;;4150902;28;20429;-64
2022/11/05 01:44:52;;;;;;;70.70;36.40;;;8.00;99.90;;;;;;4154180;28;20037;-64
2022/11/05 01:46:53;;;;;;;72.83;39.27;;;8.00;99.90;;;;;;4146812;28;20100;-64
2022/11/05 01:48:56;;;;;;;72.73;37.57;;;8.00;99.90;;;;;;4144526;28;20054;-64
2022/11/05 01:51:05;;;;;;;70.87;36.30;;;8.00;99.90;;;;;;4146867;28;20104;-64
2022/11/05 01:53:38;;;;;;;72.00;37.13;;;8.00;99.90;;;;;;4144557;28;20426;-64
2022/11/05 01:55:45;;;;;;;69.13;38.53;;;8.10;99.90;;;;;;4139091;28;20038;-64
2022/11/05 01:57:46;;;;;;;78.13;38.77;;;8.10;99.90;;;;;;4145540;28;20046;-64
2022/11/05 01:59:53;;;;;;;77.37;40.20;;;8.00;99.90;;;;;;4144170;28;20092;-64
2022/11/05 02:01:55;;;;;;;70.30;37.87;;;8.00;99.90;;;;;;4145899;28;20037;-65
2022/11/05 02:04:01;;;;;;;68.87;36.83;;;8.00;99.90;;;;;;4144858;28;20033;-63
2022/11/05 02:06:03;;;;;;;69.57;36.47;;;8.00;99.90;;;;;;4145499;28;20084;-63
2022/11/05 02:08:07;;;;;;;72.37;37.23;;;8.10;99.90;;;;;;4145022;28;20026;-64
2022/11/05 02:10:12;;;;;;;60.07;36.63;;;8.00;99.90;;;;;;4145087;28;20026;-63
2022/11/05 02:12:14;;;;;;;67.47;36.37;;;8.00;99.90;;;;;;4145353;28;20033;-65
2022/11/05 02:14:15;;;;;;;64.23;35.13;;;8.00;99.90;;;;;;4144897;28;20042;-63
2022/11/05 02:16:54;;;;;;;64.60;34.97;;;8.00;99.90;;;;;;4144685;28;20100;-63
2022/11/05 02:19:14;;;;;;;65.23;35.80;;;8.00;99.90;;;;;;4143742;28;20053;-63
2022/11/05 02:21:33;;;;;;;66.47;35.67;;;8.10;99.90;;;;;;4144644;28;20034;-63
2022/11/05 02:23:50;;;;;;;69.87;34.53;;;8.10;99.90;;;;;;4145742;28;20041;-64
2022/11/05 02:26:23;;;;;;;63.17;36.83;;;8.10;99.90;;;;;;4146643;28;20041;-63
2022/11/05 02:29:06;;;;;;;71.57;38.90;;;8.00;99.90;;;;;;4147648;28;20037;-64
2022/11/05 02:31:21;;;;;;;68.27;37.87;;;8.00;99.90;;;;;;4144505;28;20029;-63
2022/11/05 02:33:39;;;;;;;72.73;37.77;;;8.00;99.90;;;;;;4154451;28;20469;-63
2022/11/05 02:35:50;;;;;;;72.53;39.33;;;8.00;99.90;;;;;;4150542;28;20089;-63
2022/11/05 02:38:01;;;;;;;74.88;43.00;;;8.00;99.90;;;;;;4149955;28;20049;-63
2022/11/05 02:40:12;;;;;;;79.20;42.70;;;8.00;99.90;;;;;;4160938;28;20107;-64
2022/11/05 02:42:38;;;;;;;76.13;41.20;;;7.90;99.90;;;;;;4153265;28;20088;-64
2022/11/05 02:44:55;;;;;;;74.93;39.87;;;7.90;99.90;;;;;;4151601;28;20379;-64
2022/11/05 02:47:19;;;;;;;68.20;38.53;;;7.90;99.90;;;;;;4158714;28;20022;-65
2022/11/05 02:49:51;;;;;;;75.97;41.47;;;8.00;99.90;;;;;;4152244;28;20046;-64
2022/11/05 02:52:03;;;;;;;86.53;44.50;;;8.00;99.90;;;;;;4159003;28;20392;-63
2022/11/05 02:54:21;;;;;;;91.87;48.70;;;8.00;99.90;;;;;;4160954;28;20103;-66
2022/11/05 02:56:32;;;;;;;83.60;46.70;;;8.00;99.90;;;;;;4159117;28;20068;-64
2022/11/05 02:58:34;;;;;;;90.83;49.27;;;8.00;99.90;;;;;;4147047;28;20113;-65
2022/11/05 03:00:55;;;;;;;95.03;51.37;;;8.00;99.90;;;;;;4147229;28;20456;-64
2022/11/05 03:02:56;;;;;;;91.22;50.85;;;8.00;99.90;;;;;;4161269;28;20080;-64
2022/11/05 03:04:58;;;;;;;89.93;49.87;;;7.90;99.90;;;;;;4159034;28;20072;-65
2022/11/05 03:07:15;;;;;;;103.80;55.83;;;7.90;99.90;;;;;;4160555;28;20552;-64
2022/11/05 03:09:25;;;;;;;102.07;57.43;;;7.90;99.90;;;;;;4159764;28;20041;-64
2022/11/05 03:11:29;;;;;;;106.97;58.80;;;7.90;99.90;;;;;;4161523;28;20103;-64
2022/11/05 03:13:50;;;;;;;99.90;55.30;;;7.90;99.90;;;;;;4147642;28;20329;-64
2022/11/05 03:16:01;;;;;;;;;;;7.90;99.90;;;;;;4150104;28;20038;-63
2022/11/05 03:18:37;;;;;;;95.57;53.08;;;7.90;99.90;;;;;;4148156;28;20325;-64
2022/11/05 03:21:41;;;;;;;98.63;52.67;;;7.90;99.90;;;;;;4106381;28;20502;-65
2022/11/05 03:23:42;;;;;;;81.83;47.60;;;7.90;99.90;;;;;;4081801;29;20051;-64
2022/11/05 03:25:48;;;;;;;90.93;49.90;;;7.90;99.90;;;;;;4124820;28;20030;-64
2022/11/05 03:27:56;;;;;;;98.33;48.87;;;7.90;99.90;;;;;;4163387;28;20466;-64
2022/11/05 03:30:02;;;;;;;82.83;47.60;;;7.90;99.90;;;;;;4158812;28;20440;-64
2022/11/05 03:32:04;;;;;;;84.43;47.10;;;7.90;99.90;;;;;;4163617;28;20079;-65
2022/11/05 03:34:07;;;;;;;81.80;44.40;;;7.90;99.90;;;;;;4163701;28;20091;-64
2022/11/05 03:36:17;;;;;;;82.77;46.70;;;7.90;99.90;;;;;;4163320;28;20052;-65
2022/11/05 03:38:25;;;;;;;86.23;43.27;;;7.90;99.90;;;;;;4150827;28;20506;-63
2022/11/05 03:40:29;;;;;;;86.83;44.70;;;8.00;99.90;;;;;;4157084;28;20021;-64
2022/11/05 03:42:33;;;;;;;75.00;42.33;;;8.00;99.90;;;;;;4159488;28;20127;-64
2022/11/05 03:44:40;;;;;;;75.83;43.00;;;8.00;99.90;;;;;;4147867;28;20049;-64
2022/11/05 03:46:48;;;;;;;82.27;43.10;;;8.00;99.90;;;;;;4160116;28;20184;-63
2022/11/05 03:48:52;;;;;;;80.57;43.20;;;8.10;99.90;;;;;;4162107;28;20049;-64
2022/11/05 03:51:26;;;;;;;79.10;41.93;;;8.10;99.90;;;;;;4156249;28;20080;-64
2022/11/05 03:53:31;;;;;;;76.50;39.60;;;8.10;99.90;;;;;;4119849;28;20050;-63
2022/11/05 03:55:42;;;;;;;69.70;38.93;;;8.10;99.90;;;;;;4147001;28;20050;-64
2022/11/05 03:57:48;;;;;;;76.23;40.30;;;8.10;99.90;;;;;;4158156;28;20099;-64
2022/11/05 03:59:50;;;;;;;83.13;40.27;;;8.00;99.90;;;;;;4163883;28;20060;-65
2022/11/05 04:01:53;;;;;;;73.07;39.33;;;8.00;99.90;;;;;;4161212;28;20033;-65
2022/11/05 04:03:54;;;;;;;75.33;42.87;;;8.00;99.90;;;;;;4163163;28;20091;-67
2022/11/05 04:15:14;;;;;;;68.13;36.60;;;7.90;99.90;;;;;;4153954;28;20091;-64
2022/11/05 04:17:15;;;;;;;65.10;34.07;;;7.80;99.90;;;;;;4161925;28;20436;-65
2022/11/05 04:24:07;;;;;;;68.87;36.60;;;7.90;99.90;;;;;;4149908;28;20050;-64
2022/11/05 04:24:09;;;;;;;69.37;37.30;;;7.90;99.90;;;;;;4162854;28;20156;-63
2022/11/05 04:26:10;;;;;;;66.67;35.53;;;7.90;99.90;;;;;;4161807;28;20095;-63
2022/11/05 04:28:12;;;;;;;65.43;36.80;;;7.90;99.90;;;;;;4146596;28;20046;-64
2022/11/05 04:30:17;;;;;;;63.33;34.90;;;7.90;99.90;;;;;;4150360;28;20763;-63
2022/11/05 04:32:19;;;;;;;69.40;36.27;;;8.00;99.90;;;;;;4159812;28;20041;-65
2022/11/05 04:34:20;;;;;;;65.53;36.50;;;8.00;99.90;;;;;;4162053;28;20049;-65
2022/11/05 04:36:22;;;;;;;66.37;35.87;;;8.00;99.90;;;;;;4150051;28;20041;-64
2022/11/05 04:38:23;;;;;;;63.83;35.63;;;8.00;99.90;;;;;;4147093;28;20096;-65
2022/11/05 04:40:24;;;;;;;59.80;34.90;;;8.10;99.90;;;;;;4146324;28;20071;-64
2022/11/05 04:42:27;;;;;;;71.33;36.80;;;8.10;99.90;;;;;;4147011;28;20034;-66
2022/11/05 04:44:28;;;;;;;67.00;36.53;;;8.10;99.90;;;;;;4146849;28;20541;-63
2022/11/05 04:46:29;;;;;;;75.40;38.43;;;8.10;99.90;;;;;;4147961;28;20088;-64
2022/11/05 04:48:30;;;;;;;65.77;37.03;;;8.10;99.90;;;;;;4156131;28;20092;-63
2022/11/05 04:50:31;;;;;;;67.87;36.80;;;8.00;99.90;;;;;;4162662;28;20425;-63
2022/11/05 04:52:32;;;;;;;62.10;35.07;;;8.00;99.90;;;;;;4153012;28;20026;-63
2022/11/05 04:54:33;;;;;;;63.33;34.73;;;8.00;99.90;;;;;;4162730;28;20030;-63
2022/11/05 04:56:35;;;;;;;62.10;34.83;;;7.90;99.90;;;;;;4160471;28;20030;-64
2022/11/05 04:58:40;;;;;;;65.20;36.13;;;7.90;99.90;;;;;;4153407;28;20477;-63
2022/11/05 05:00:42;;;;;;;63.37;35.10;;;8.00;99.90;;;;;;4145783;28;20084;-65
2022/11/05 05:02:43;;;;;;;65.57;35.83;;;7.90;99.90;;;;;;4145175;28;20096;-64
2022/11/05 05:04:44;;;;;;;63.00;35.33;;;8.00;99.90;;;;;;4147397;28;20512;-64
2022/11/05 05:06:45;;;;;;;69.27;37.67;;;8.00;99.90;;;;;;4145483;28;20030;-63
2022/11/05 05:08:48;;;;;;;73.20;39.27;;;8.00;99.90;;;;;;4147393;28;20045;-64
2022/11/05 05:10:49;;;;;;;67.13;36.60;;;8.10;99.90;;;;;;4145557;28;20030;-63
2022/11/05 05:12:50;;;;;;;70.23;39.23;;;8.10;99.90;;;;;;4152396;28;20045;-64
2022/11/05 05:14:51;;;;;;;71.07;37.47;;;8.10;99.90;;;;;;4162354;28;20478;-63
2022/11/05 05:16:52;;;;;;;62.93;35.90;;;8.10;99.90;;;;;;4160447;28;20033;-64
2022/11/05 05:18:54;;;;;;;67.30;37.13;;;8.10;99.90;;;;;;4161916;28;20127;-64
2022/11/05 05:23:18;;;;;;;64.83;36.30;;;8.10;99.90;;;;;;4161871;28;20083;-62
2022/11/05 05:25:20;;;;;;;59.13;33.70;;;8.10;99.90;;;;;;4145968;28;20441;-64
2022/11/05 05:27:22;;;;;;;60.80;32.83;;;8.10;99.90;;;;;;4152869;28;20091;-65
2022/11/05 05:29:23;;;;;;;57.03;32.80;;;8.10;99.90;;;;;;4160330;28;20075;-64
2022/11/05 05:31:25;;;;;;;54.00;30.90;;;8.00;99.90;;;;;;4156450;28;20478;-63
2022/11/05 05:33:27;;;;;;;56.30;31.77;;;8.00;99.90;;;;;;4154291;28;20525;-64
2022/11/05 05:35:28;;;;;;;55.97;30.20;;;7.90;99.90;;;;;;4147532;28;20410;-64
2022/11/05 05:37:29;;;;;;;56.00;31.00;;;7.90;99.90;;;;;;4161663;28;20470;-65
2022/11/05 05:39:30;;;;;;;58.47;30.13;;;7.90;99.90;;;;;;4159815;28;20091;-64
2022/11/05 05:41:32;;;;;;;56.00;32.77;;;7.90;99.90;;;;;;4160552;28;20045;-63
2022/11/05 05:43:33;;;;;;;56.53;31.10;;;7.80;99.90;;;;;;4155028;28;20095;-64
2022/11/05 05:45:35;;;;;;;63.40;33.77;;;7.80;99.90;;;;;;4158974;28;20049;-64
2022/11/05 05:47:36;;;;;;;58.03;30.90;;;7.80;99.90;;;;;;4167954;28;20391;-64
2022/11/05 05:49:37;;;;;;;69.13;34.20;;;7.80;99.90;;;;;;4177596;28;20030;-64
2022/11/05 05:51:38;;;;;;;66.13;32.70;;;7.80;99.90;;;;;;4146635;28;20030;-64
2022/11/05 05:53:40;;;;;;;57.87;32.70;;;7.80;99.90;;;;;;4144864;28;20056;-64
2022/11/05 05:55:41;;;;;;;60.27;32.80;;;7.80;99.90;;;;;;4145368;28;20449;-64
2022/11/05 05:57:42;;;;;;;54.20;31.20;;;7.80;99.90;;;;;;4150111;28;20045;-63
2022/11/05 05:59:43;;;;;;;61.80;32.10;;;7.80;99.90;;;;;;4155601;28;20054;-65
2022/11/05 06:01:44;;;;;;;58.63;32.70;;;7.80;99.90;;;;;;4157150;28;20099;-64
2022/11/05 06:03:47;;;;;;;57.70;31.13;;;7.90;99.90;;;;;;4160480;28;20099;-64
2022/11/05 06:05:48;;;;;;;56.00;30.30;;;7.90;99.90;;;;;;4148700;28;20042;-63
2022/11/05 06:07:56;;;;;;;57.00;29.70;;;8.00;99.90;;;;;;4144859;28;20041;-66
2022/11/05 06:09:57;;;;;;;59.77;31.87;;;8.00;99.90;;;;;;4144988;28;20084;-65
2022/11/05 06:11:58;;;;;;;53.23;29.30;;;8.10;99.90;;;;;;4143861;28;20088;-64
2022/11/05 06:14:01;;;;;;;66.60;35.63;;;8.10;99.90;;;;;;4148393;28;20081;-63
2022/11/05 06:16:04;;;;;;;61.67;32.73;;;8.20;99.90;;;;;;4144460;28;20107;-63
2022/11/05 06:18:05;;;;;;;60.90;32.27;;;8.20;99.90;;;;;;4158996;28;20037;-63
2022/11/05 06:20:07;;;;;;;51.57;29.30;;;8.30;99.90;;;;;;4160166;28;20547;-65
2022/11/05 06:22:09;;;;;;;55.17;30.33;;;8.40;99.90;;;;;;4152243;28;20067;-64
2022/11/05 06:24:10;;;;;;;54.10;28.73;;;8.40;99.90;;;;;;4143775;28;20034;-66
2022/11/05 06:26:16;;;;;;;63.47;31.40;;;8.50;99.90;;;;;;4144518;28;20042;-63
2022/11/05 06:28:17;;;;;;;54.63;30.63;;;8.60;99.90;;;;;;4148191;28;20025;-64
2022/11/05 06:30:20;;;;;;;61.63;31.90;;;8.70;99.90;;;;;;4150840;28;20088;-63
2022/11/05 06:32:21;;;;;;;48.50;27.77;;;8.80;99.90;;;;;;4135799;28;20121;-63
2022/11/05 06:34:22;;;;;;;52.27;28.87;;;8.90;99.90;;;;;;4156032;28;20088;-64
2022/11/05 06:36:23;;;;;;;56.03;29.37;;;8.90;99.90;;;;;;4148506;28;20075;-63
2022/11/05 06:38:24;;;;;;;53.10;27.97;;;9.00;99.90;;;;;;4158295;28;20045;-67
2022/11/05 06:40:26;;;;;;;54.73;28.60;;;9.00;99.90;;;;;;4160500;28;20033;-65
2022/11/05 06:42:27;;;;;;;52.07;27.70;;;9.10;99.90;;;;;;4159610;28;20049;-64
2022/11/05 06:44:28;;;;;;;50.53;27.50;;;9.20;99.90;;;;;;4152767;28;20053;-63
2022/11/05 06:46:29;;;;;;;46.77;26.10;;;9.20;99.90;;;;;;4150115;28;20025;-63
2022/11/05 06:48:31;;;;;;;51.27;26.67;;;9.30;99.90;;;;;;4161478;28;20049;-64
2022/11/05 06:50:32;;;;;;;48.87;27.00;;;9.30;99.90;;;;;;4157753;28;20095;-62
2022/11/05 06:52:33;;;;;;;52.87;27.20;;;9.30;99.90;;;;;;4160622;28;20072;-64
2022/11/05 06:54:34;;;;;;;54.27;29.13;;;9.40;99.90;;;;;;4160216;28;20075;-62
2022/11/05 06:56:35;;;;;;;67.63;35.67;;;9.40;99.90;;;;;;4161371;28;20049;-64
2022/11/05 06:58:37;;;;;;;71.83;41.17;;;9.50;99.90;;;;;;4159323;28;20041;-64
2022/11/05 07:00:38;;;;;;;65.57;39.70;;;9.60;99.90;;;;;;4161107;28;20128;-63
2022/11/05 07:02:39;;;;;;;62.20;38.30;;;9.60;99.90;;;;;;4152876;28;20441;-63
2022/11/05 07:04:40;;;;;;;60.40;31.20;;;9.70;99.90;;;;;;4144620;28;20034;-66
2022/11/05 07:06:41;;;;;;;54.57;29.73;;;9.70;99.90;;;;;;4144214;28;20072;-67
2022/11/05 07:08:42;;;;;;;67.00;31.47;;;9.70;99.90;;;;;;4144281;28;20054;-65
2022/11/05 07:10:43;;;;;;;59.70;31.40;;;9.70;99.90;;;;;;4143952;28;20088;-63
2022/11/05 07:12:45;;;;;;;51.03;30.00;;;9.70;99.90;;;;;;4144044;28;20030;-65
2022/11/05 07:14:46;;;;;;;59.87;27.70;;;9.80;99.90;;;;;;4155288;28;20871;-63
2022/11/05 07:16:47;;;;;;;54.23;28.57;;;9.80;99.90;;;;;;4159010;28;20083;-66
2022/11/05 07:18:48;;;;;;;48.27;27.47;;;9.90;99.90;;;;;;4161286;28;20037;-64
2022/11/05 07:20:49;;;;;;;47.67;28.00;;;9.90;99.90;;;;;;4160081;28;20030;-67
2022/11/05 07:22:51;;;;;;;50.47;29.70;;;9.90;99.90;;;;;;4161319;28;20417;-64
2022/11/05 07:24:52;;;;;;;51.73;29.17;;;9.90;99.90;;;;;;4158290;28;20025;-62
2022/11/05 07:26:53;;;;;;;45.30;27.17;;;10.00;99.90;;;;;;4160169;28;20049;-67
2022/11/05 07:28:54;;;;;;;60.67;30.43;;;10.00;99.90;;;;;;4158307;28;20033;-68
2022/11/05 07:30:58;;;;;;;52.07;27.20;;;10.00;99.90;;;;;;4145827;28;20894;-65
2022/11/05 07:32:59;;;;;;;50.93;28.20;;;10.00;99.90;;;;;;4141686;28;20426;-65
2022/11/05 07:35:00;;;;;;;51.40;29.97;;;10.00;99.90;;;;;;4161241;28;20030;-65
2022/11/05 07:37:01;;;;;;;58.83;29.97;;;10.00;99.90;;;;;;4157693;28;20527;-63
2022/11/05 07:39:02;;;;;;;52.47;29.03;;;10.10;99.90;;;;;;4160110;28;20045;-65
2022/11/05 07:41:03;;;;;;;54.77;27.97;;;10.20;99.90;;;;;;4151872;28;20041;-64
2022/11/05 07:43:04;;;;;;;51.30;26.63;;;10.20;99.90;;;;;;4143509;28;20034;-64
2022/11/05 07:45:06;;;;;;;56.73;27.53;;;10.30;99.90;;;;;;4143798;28;20073;-62
2022/11/05 07:47:07;;;;;;;47.70;28.20;;;10.30;99.90;;;;;;4158666;28;20084;-70
2022/11/05 07:49:08;;;;;;;45.17;25.70;;;10.30;99.90;;;;;;4160635;28;20507;-68
2022/11/05 07:51:10;;;;;;;50.47;25.97;;;10.40;99.90;;;;;;4143593;28;20101;-70
2022/11/05 07:53:13;;;;;;;43.73;26.63;;;10.40;99.90;;;;;;4153201;28;20571;-69
2022/11/05 07:55:15;;;;;;;48.67;26.67;;;10.50;99.90;;;;;;4159763;28;20021;-67
2022/11/05 07:57:16;;;;;;;48.57;25.47;;;10.50;99.90;;;;;;4161904;28;20037;-68
2022/11/05 07:59:17;;;;;;;46.20;24.70;;;10.60;99.90;;;;;;4161436;28;20041;-72
2022/11/05 08:01:18;;;;;;;43.27;24.77;;;10.70;99.90;;;;;;4158513;28;20095;-69
2022/11/05 08:03:19;;;;;;;50.23;27.23;;;10.70;99.90;;;;;;4146562;28;20115;-69
2022/11/05 08:05:20;;;;;;;48.20;26.60;;;10.80;99.90;;;;;;4147989;28;20203;-68
2022/11/05 08:07:21;;;;;;;48.50;26.97;;;10.80;99.90;;;;;;4153602;28;20543;-68
2022/11/05 08:09:22;;;;;;;50.00;26.67;;;10.90;99.90;;;;;;4161616;28;20029;-68
2022/11/05 08:11:23;;;;;;;48.27;25.63;;;10.90;99.90;;;;;;4163046;28;20072;-66
2022/11/05 08:13:25;;;;;;;51.33;26.40;;;10.90;99.90;;;;;;4163706;28;20091;-64
2022/11/05 08:15:26;;;;;;;43.73;25.77;;;11.00;99.90;;;;;;4145985;28;20080;-69
2022/11/05 08:17:27;;;;;;;41.83;24.03;;;11.00;99.90;;;;;;4162551;28;20064;-69
2022/11/05 08:19:28;;;;;;;50.60;24.43;;;11.00;99.90;;;;;;4163293;28;20037;-65
2022/11/05 08:21:30;;;;;;;40.07;23.70;;;11.00;99.90;;;;;;4150124;28;20459;-66
2022/11/05 08:23:31;;;;;;;41.60;24.23;;;11.10;99.90;;;;;;4147048;28;20064;-65
2022/11/05 08:25:33;;;;;;;38.63;22.73;;;11.20;99.90;;;;;;4145848;28;20541;-68
2022/11/05 08:27:34;;;;;;;35.37;21.27;;;11.20;99.90;;;;;;4145945;28;20486;-73
2022/11/05 08:29:35;;;;;;;35.17;21.20;;;11.20;99.90;;;;;;4148644;28;20088;-68
2022/11/05 08:31:36;;;;;;;40.03;22.27;;;11.30;99.90;;;;;;4149988;28;20075;-69
2022/11/05 08:33:37;;;;;;;43.23;22.30;;;11.30;99.90;;;;;;4147430;28;20050;-69
2022/11/05 08:35:39;;;;;;;40.47;20.10;;;11.30;99.90;;;;;;4148076;28;20056;-68
2022/11/05 08:37:40;;;;;;;42.37;23.07;;;11.30;99.90;;;;;;4146738;28;20029;-66
2022/11/05 08:39:41;;;;;;;37.93;22.33;;;11.40;99.90;;;;;;4148673;28;20057;-70
2022/11/05 08:41:42;;;;;;;48.43;25.23;;;11.60;99.90;;;;;;4145072;28;20490;-67
2022/11/05 08:43:43;;;;;;;41.90;25.07;;;11.80;99.90;;;;;;4146303;28;20038;-70
2022/11/05 08:45:45;;;;;;;33.70;21.17;;;12.10;99.90;;;;;;4145943;28;20046;-70
2022/11/05 08:47:46;;;;;;;40.10;19.90;;;12.10;99.90;;;;;;4145672;28;20042;-69
2022/11/05 08:49:49;;;;;;;41.23;19.63;;;12.20;99.90;;;;;;4150781;28;20099;-71
2022/11/05 08:51:50;;;;;;;25.60;15.77;;;12.20;99.90;;;;;;4156080;28;20038;-68
2022/11/05 08:53:51;;;;;;;25.70;15.47;;;12.30;99.90;;;;;;4146420;28;20034;-68
2022/11/05 08:55:56;;;;;;;31.67;17.30;;;12.30;99.90;;;;;;4144236;28;20088;-65
2022/11/05 08:58:01;;;;;;;27.00;14.77;;;12.50;99.90;;;;;;4145880;28;20050;-67
2022/11/05 09:00:03;;;;;;;29.03;14.17;;;12.50;99.90;;;;;;4145370;28;20045;-69
2022/11/05 09:02:04;;;;;;;24.07;14.20;;;12.50;99.90;;;;;;4147038;28;20042;-75
2022/11/05 09:04:05;;;;;;;25.23;14.17;;;12.50;99.90;;;;;;4147427;28;20096;-65
2022/11/05 09:06:07;;;;;;;29.80;14.90;;;12.40;99.90;;;;;;4145528;28;20038;-67
2022/11/05 09:08:18;;;;;;;21.80;13.87;;;12.40;99.90;;;;;;4144603;28;20502;-67
2022/11/05 09:10:19;;;;;;;21.20;13.63;;;12.40;99.90;;;;;;4146699;28;20051;-68
2022/11/05 09:12:20;;;;;;;24.43;14.40;;;12.50;99.90;;;;;;4145479;28;20092;-70
2022/11/05 09:14:21;;;;;;;28.13;14.80;;;12.70;99.90;;;;;;4154423;28;20405;-72
2022/11/05 09:16:24;;;;;;;27.87;14.73;;;12.80;99.90;;;;;;4160688;28;20040;-69
2022/11/05 09:18:26;;;;;;;25.20;15.00;;;13.00;99.90;;;;;;4161703;28;20037;-68
2022/11/05 09:20:27;;;;;;;23.73;13.63;;;13.10;99.90;;;;;;4160862;28;20629;-68
2022/11/05 09:22:28;;;;;;;28.97;14.27;;;13.10;99.90;;;;;;4161603;28;20489;-71
2022/11/05 09:24:30;;;;;;;19.83;12.47;;;13.10;99.90;;;;;;4161549;28;20075;-70
2022/11/05 09:26:31;;;;;;;21.90;13.40;;;13.00;99.90;;;;;;4160670;28;20428;-71
2022/11/05 09:28:32;;;;;;;23.60;13.27;;;12.90;99.90;;;;;;4159807;28;20113;-69
2022/11/05 09:30:33;;;;;;;24.70;13.07;;;12.90;99.90;;;;;;4160420;28;20045;-67
2022/11/05 09:32:34;;;;;;;22.97;12.47;;;12.90;99.90;;;;;;4162235;28;20072;-73
2022/11/05 09:34:35;;;;;;;23.30;14.17;;;12.90;99.90;;;;;;4160337;28;20171;-65
2022/11/05 09:36:36;;;;;;;23.77;13.80;;;12.90;99.90;;;;;;4154423;28;20045;-65
2022/11/05 09:38:38;;;;;;;24.00;13.67;;;12.90;99.90;;;;;;4151367;28;20527;-67
2022/11/05 09:40:49;;;;;;;27.27;13.73;;;13.00;99.90;;;;;;4157475;28;20042;-65
2022/11/05 09:42:53;;;;;;;22.37;14.37;;;13.00;99.90;;;;;;4145485;28;20419;-67
2022/11/05 09:45:03;;;;;;;24.27;13.37;;;13.00;99.90;;;;;;4158941;28;20080;-65
2022/11/05 09:47:11;;;;;;;35.03;14.90;;;13.00;99.90;;;;;;4151011;28;20203;-67
2022/11/05 09:49:28;;;;;;;26.37;14.47;;;13.10;99.90;;;;;;4156889;28;20119;-68
2022/11/05 09:51:30;;;;;;;27.27;15.67;;;13.20;99.90;;;;;;4146833;28;20084;-67
2022/11/05 09:53:37;;;;;;;24.30;13.80;;;13.20;99.90;;;;;;4147060;28;20054;-66
2022/11/05 09:55:41;;;;;;;24.03;13.43;;;13.30;99.90;;;;;;4145294;28;20026;-66
2022/11/05 09:57:54;;;;;;;26.83;13.47;;;13.30;99.90;;;;;;4156318;28;20111;-72
2022/11/05 10:00:02;;;;;;;25.67;14.00;;;13.40;99.90;;;;;;4160495;28;20084;-68
2022/11/05 10:02:28;;;;;;;22.40;13.20;;;13.40;99.90;;;;;;4143248;28;20088;-73
2022/11/05 10:04:32;;;;;;;26.93;13.80;;;13.60;99.90;;;;;;4160117;28;20045;-65
2022/11/05 10:06:35;;;;;;;27.77;14.40;;;13.60;99.90;;;;;;4161292;28;20033;-66
2022/11/05 10:08:42;;;;;;;22.03;13.33;;;13.70;99.90;;;;;;4160456;28;20466;-69
2022/11/05 10:10:59;;;;;;;24.27;12.40;;;13.80;99.90;;;;;;4143234;28;20038;-69
2022/11/05 10:13:21;;;;;;;25.53;15.27;;;13.80;99.90;;;;;;4158914;28;20022;-72
2022/11/05 10:15:37;;;;;;;28.27;13.77;;;14.00;99.90;;;;;;4161349;28;20095;-66
2022/11/05 10:17:43;;;;;;;22.20;13.50;;;14.10;99.90;;;;;;4159308;28;20506;-70
2022/11/05 10:19:49;;;;;;;27.50;14.17;;;14.20;99.90;;;;;;4159864;28;20045;-66
2022/11/05 10:22:24;;;;;;;23.47;13.43;;;14.30;99.90;;;;;;4150463;28;20088;-67
2022/11/05 10:24:26;;;;;;;22.65;13.25;;;14.30;99.90;;;;;;4134951;28;20160;-66
2022/11/05 10:26:28;;;;;;;24.57;13.70;;;14.30;99.90;;;;;;4142278;28;20034;-66
2022/11/05 10:28:33;;;;;;;24.48;12.90;;;14.40;99.90;;;;;;4153197;28;20022;-67
2022/11/05 10:30:34;;;;;;;24.63;15.10;;;14.40;99.90;;;;;;4150436;28;20619;-68
2022/11/05 10:32:40;;;;;;;27.93;14.73;;;14.40;99.90;;;;;;4160353;28;20091;-68
2022/11/05 10:34:41;;;;;;;23.45;13.23;;;14.40;99.90;;;;;;4125581;28;20093;-72
2022/11/05 10:36:44;;;;;;;23.73;13.93;;;14.50;99.90;;;;;;4143700;28;20161;-65
2022/11/05 10:38:45;;;;;;;20.73;13.00;;;14.60;99.90;;;;;;4149755;28;20549;-65
2022/11/05 10:40:59;;;;;;;22.27;11.80;;;14.50;99.90;;;;;;4144609;28;20045;-67
2022/11/05 10:43:23;;;;;;;25.27;13.15;;;14.50;99.90;;;;;;4144241;28;20486;-66
2022/11/05 10:45:30;;;;;;;22.42;12.98;;;14.50;99.90;;;;;;4145282;28;20566;-70
2022/11/05 10:48:04;;;;;;;24.88;13.85;;;14.50;99.90;;;;;;4143496;28;20054;-71
2022/11/05 10:50:12;;;;;;;19.00;12.48;;;14.50;99.90;;;;;;4131744;28;20049;-68
2022/11/05 10:52:24;;;;;;;29.98;14.43;;;14.60;99.90;;;;;;4140260;28;20037;-70
2022/11/05 10:54:34;;;;;;;29.73;12.85;;;14.70;99.90;;;;;;4160395;28;20559;-64
2022/11/05 10:56:38;;;;;;;22.35;13.95;;;14.70;99.90;;;;;;4147790;28;20022;-66
2022/11/05 10:58:53;;;;;;;23.77;13.90;;;14.80;99.90;;;;;;4144785;28;20159;-67
2022/11/05 11:00:54;;;;;;;27.17;13.82;;;14.80;99.90;;;;;;4143534;28;20042;-66
2022/11/05 11:02:58;;;;;;;22.58;12.02;;;14.90;99.90;;;;;;4144400;28;21038;-68
2022/11/05 11:04:59;;;;;;;26.83;12.68;;;15.00;99.90;;;;;;4143644;28;20038;-67
2022/11/05 11:07:01;;;;;;;21.10;12.80;;;15.00;99.90;;;;;;4145251;28;20418;-68
2022/11/05 11:09:06;;;;;;;25.70;12.68;;;15.00;99.90;;;;;;4143790;28;20053;-66
2022/11/05 11:11:11;;;;;;;20.67;13.05;;;15.00;99.90;;;;;;4144354;28;20103;-67
2022/11/05 11:13:27;;;;;;;29.15;15.65;;;14.90;99.90;;;;;;4143455;28;20490;-66
2022/11/05 11:15:33;;;;;;;29.23;16.20;;;15.00;99.90;;;;;;4144981;28;20104;-67